^^
Saratoga-Weather Station Historical Data
Daily Summary for October 28, 2020 Units:  Both    English   Metric
Daily Weekly Monthly Yearly Custom
  High: Low: Average:
Temperature: 57.2 °F /  14 °C 50.7 °F /  10.4 °C 54 °F /  12.2 °C
Dew Point: 51.8 °F /  11 °C 46.8 °F /  8.2 °C 49.3 °F /  9.6 °C
Humidity: 96% 68% 84%
Wind Speed: 12.1mph /  19.5km/h - 2.4mph /  3.8km/h
Wind Gust: 16mph /  25.7km/h - -
Wind- - SW
Pressure: 29.9 in /  1012.5 hPa 29.7 in /  1006.4 hPa -
Precipitation: 0.26 in /  6.6 mm    
Historical Graphs
 
 
Tabular Data for October 28, 2020
Time Temperature Dew Point Pressure Wind Wind Speed Wind Gust Humidity Rainfall Rate (Hourly) solar
00:00 50.7 °F /  10.4 °C 48.7 °F /  9.3 °C 29.7in /  1006.8hPa ENE 0.9mph /  1.4km/h 3mph /  4.8km/h 93% 0.02in /  0.5mm 0 W/m2
00:05 50.9 °F /  10.5 °C 49.3 °F /  9.6 °C 29.7in /  1006.8hPa WNW 2.9mph /  4.7km/h 5mph /  8km/h 94% 0.02in /  0.5mm 0 W/m2
00:10 50.9 °F /  10.5 °C 49.3 °F /  9.6 °C 29.7in /  1006.8hPa NW 4mph /  6.4km/h 7mph /  11.3km/h 94% 0.02in /  0.5mm 0 W/m2
00:15 51.1 °F /  10.6 °C 49.5 °F /  9.7 °C 29.7in /  1006.4hPa ENE 2.9mph /  4.7km/h 5mph /  8km/h 94% 0.02in /  0.5mm 0 W/m2
00:20 51.1 °F /  10.6 °C 49.5 °F /  9.7 °C 29.7in /  1006.8hPa NNW 2.9mph /  4.7km/h 4mph /  6.4km/h 94% 0.02in /  0.5mm 0 W/m2
00:26 51.1 °F /  10.6 °C 49.1 °F /  9.5 °C 29.7in /  1006.8hPa NE 4mph /  6.4km/h 4mph /  6.4km/h 93% 0.02in /  0.5mm 0 W/m2
00:31 51.3 °F /  10.7 °C 49.3 °F /  9.6 °C 29.7in /  1006.4hPa Calm   10mph /  16.1km/h 93% 0.02in /  0.5mm 0 W/m2
00:36 51.4 °F /  10.8 °C 49.5 °F /  9.7 °C 29.7in /  1006.8hPa ENE 2mph /  3.2km/h 3mph /  4.8km/h 93% 0.02in /  0.5mm 0 W/m2
00:41 51.4 °F /  10.8 °C 49.5 °F /  9.7 °C 29.7in /  1006.8hPa NE 0.9mph /  1.4km/h 10mph /  16.1km/h 93% 0.02in /  0.5mm 0 W/m2
00:46 51.4 °F /  10.8 °C 49.5 °F /  9.7 °C 29.7in /  1006.4hPa NE 0.9mph /  1.4km/h 5mph /  8km/h 93% 0.02in /  0.5mm 0 W/m2
00:51 51.4 °F /  10.8 °C 49.8 °F /  9.9 °C 29.7in /  1006.4hPa ENE 2mph /  3.2km/h 6mph /  9.7km/h 94% 0.01in /  0.2mm 0 W/m2
00:56 51.6 °F /  10.9 °C 50 °F /  10 °C 29.7in /  1006.8hPa South 0.9mph /  1.4km/h 3mph /  4.8km/h 94% 0in /  0.0mm 0 W/m2
01:01 51.6 °F /  10.9 °C 50 °F /  10 °C 29.7in /  1006.8hPa West 4mph /  6.4km/h 6mph /  9.7km/h 94% 0in /  0.0mm 0 W/m2
01:06 51.6 °F /  10.9 °C 50 °F /  10 °C 29.7in /  1006.8hPa NW 2mph /  3.2km/h 4mph /  6.4km/h 94% 0in /  0.0mm 0 W/m2
01:11 51.8 °F /  11 °C 50.2 °F /  10.1 °C 29.7in /  1006.4hPa NNE 2mph /  3.2km/h 5mph /  8km/h 94% 0in /  0.0mm 0 W/m2
01:16 52 °F /  11.1 °C 50.4 °F /  10.2 °C 29.7in /  1006.4hPa East 2.9mph /  4.7km/h 4mph /  6.4km/h 94% 0in /  0.0mm 0 W/m2
01:21 52 °F /  11.1 °C 50.4 °F /  10.2 °C 29.7in /  1006.4hPa East 6.9mph /  11.1km/h 10mph /  16.1km/h 94% 0in /  0.0mm 0 W/m2
01:26 52.2 °F /  11.2 °C 50.2 °F /  10.1 °C 29.7in /  1006.8hPa NE 4mph /  6.4km/h 4mph /  6.4km/h 93% 0in /  0.0mm 0 W/m2
01:31 52.2 °F /  11.2 °C 50.5 °F /  10.3 °C 29.7in /  1006.8hPa NW 4.9mph /  7.9km/h 5mph /  8km/h 94% 0in /  0.0mm 0 W/m2
01:36 52.3 °F /  11.3 °C 50.7 °F /  10.4 °C 29.7in /  1006.8hPa West 2.9mph /  4.7km/h 12mph /  19.3km/h 94% 0in /  0.0mm 0 W/m2
01:41 52.3 °F /  11.3 °C 50.7 °F /  10.4 °C 29.7in /  1006.8hPa WSW 0.9mph /  1.4km/h 5mph /  8km/h 94% 0in /  0.0mm 0 W/m2
01:46 52.3 °F /  11.3 °C 50.7 °F /  10.4 °C 29.7in /  1006.8hPa NW 0.9mph /  1.4km/h 12mph /  19.3km/h 94% 0in /  0.0mm 0 W/m2
01:51 52.3 °F /  11.3 °C 50.7 °F /  10.4 °C 29.7in /  1006.8hPa North 0.9mph /  1.4km/h 5mph /  8km/h 94% 0in /  0.0mm 0 W/m2
01:56 52.3 °F /  11.3 °C 50.7 °F /  10.4 °C 29.7in /  1006.8hPa NE 2mph /  3.2km/h 5mph /  8km/h 94% 0in /  0.0mm 0 W/m2
02:01 52.3 °F /  11.3 °C 50.7 °F /  10.4 °C 29.7in /  1006.8hPa NNE 0.9mph /  1.4km/h 5mph /  8km/h 94% 0in /  0.0mm 0 W/m2
02:06 52.3 °F /  11.3 °C 50.7 °F /  10.4 °C 29.7in /  1006.8hPa WNW 2.9mph /  4.7km/h 4mph /  6.4km/h 94% 0in /  0.0mm 0 W/m2
02:11 52.3 °F /  11.3 °C 50.7 °F /  10.4 °C 29.7in /  1006.8hPa East 4mph /  6.4km/h 11mph /  17.7km/h 94% 0in /  0.0mm 0 W/m2
02:16 52.3 °F /  11.3 °C 50.7 °F /  10.4 °C 29.7in /  1006.8hPa ENE 0.9mph /  1.4km/h 4mph /  6.4km/h 94% 0in /  0.0mm 0 W/m2
02:21 52.3 °F /  11.3 °C 50.7 °F /  10.4 °C 29.7in /  1006.8hPa WNW 4mph /  6.4km/h 4mph /  6.4km/h 94% 0.01in /  0.2mm 0 W/m2
02:26 52.3 °F /  11.3 °C 50.7 °F /  10.4 °C 29.7in /  1006.8hPa ENE 0.9mph /  1.4km/h 3mph /  4.8km/h 94% 0.01in /  0.2mm 0 W/m2
02:31 52.3 °F /  11.3 °C 50.7 °F /  10.4 °C 29.7in /  1006.8hPa WNW 2.9mph /  4.7km/h 3mph /  4.8km/h 94% 0.01in /  0.2mm 0 W/m2
02:36 52.2 °F /  11.2 °C 50.5 °F /  10.3 °C 29.7in /  1006.8hPa North 2mph /  3.2km/h 4mph /  6.4km/h 94% 0.02in /  0.5mm 0 W/m2
02:41 52.2 °F /  11.2 °C 50.5 °F /  10.3 °C 29.7in /  1006.8hPa NE 6mph /  9.7km/h 6mph /  9.7km/h 94% 0.02in /  0.5mm 0 W/m2
02:46 52.2 °F /  11.2 °C 50.7 °F /  10.4 °C 29.7in /  1006.8hPa ENE 2.9mph /  4.7km/h 3mph /  4.8km/h 95% 0.02in /  0.5mm 0 W/m2
02:51 52.2 °F /  11.2 °C 50.7 °F /  10.4 °C 29.7in /  1006.8hPa NE 6mph /  9.7km/h 6mph /  9.7km/h 95% 0.02in /  0.5mm 0 W/m2
02:56 52.2 °F /  11.2 °C 50.7 °F /  10.4 °C 29.7in /  1006.8hPa NW 2mph /  3.2km/h 4mph /  6.4km/h 95% 0.02in /  0.5mm 0 W/m2
03:01 52.2 °F /  11.2 °C 50.7 °F /  10.4 °C 29.7in /  1006.8hPa Calm   2mph /  3.2km/h 95% 0.03in /  0.8mm 0 W/m2
03:06 52.2 °F /  11.2 °C 50.7 °F /  10.4 °C 29.7in /  1006.8hPa NW 2mph /  3.2km/h 4mph /  6.4km/h 95% 0.03in /  0.8mm 0 W/m2
03:11 52.2 °F /  11.2 °C 50.7 °F /  10.4 °C 29.7in /  1006.8hPa NW 2mph /  3.2km/h 2mph /  3.2km/h 95% 0.03in /  0.8mm 0 W/m2
03:16 52.2 °F /  11.2 °C 50.7 °F /  10.4 °C 29.7in /  1006.8hPa Calm   3mph /  4.8km/h 95% 0.04in /  1.0mm 0 W/m2
03:21 52.2 °F /  11.2 °C 50.7 °F /  10.4 °C 29.7in /  1006.8hPa NE 2.9mph /  4.7km/h 8mph /  12.9km/h 95% 0.04in /  1.0mm 0 W/m2
03:26 52.2 °F /  11.2 °C 50.7 °F /  10.4 °C 29.7in /  1006.8hPa ENE 0.9mph /  1.4km/h 4mph /  6.4km/h 95% 0.05in /  1.3mm 0 W/m2
03:31 52.2 °F /  11.2 °C 50.7 °F /  10.4 °C 29.7in /  1006.8hPa North 4mph /  6.4km/h 8mph /  12.9km/h 95% 0.06in /  1.5mm 0 W/m2
03:36 52.2 °F /  11.2 °C 50.7 °F /  10.4 °C 29.7in /  1006.8hPa NE 0.9mph /  1.4km/h 3mph /  4.8km/h 95% 0.06in /  1.5mm 0 W/m2
03:41 52.2 °F /  11.2 °C 50.7 °F /  10.4 °C 29.7in /  1006.8hPa WNW 2mph /  3.2km/h 4mph /  6.4km/h 95% 0.07in /  1.8mm 0 W/m2
03:46 52.2 °F /  11.2 °C 50.7 °F /  10.4 °C 29.7in /  1006.8hPa North 2.9mph /  4.7km/h 3mph /  4.8km/h 95% 0.06in /  1.5mm 0 W/m2
03:51 52.2 °F /  11.2 °C 50.7 °F /  10.4 °C 29.7in /  1006.8hPa WSW 0.9mph /  1.4km/h 7mph /  11.3km/h 95% 0.07in /  1.8mm 0 W/m2
03:56 52.2 °F /  11.2 °C 50.7 °F /  10.4 °C 29.7in /  1007.1hPa West 0.9mph /  1.4km/h 2mph /  3.2km/h 95% 0.08in /  2.0mm 0 W/m2
04:01 52.2 °F /  11.2 °C 50.7 °F /  10.4 °C 29.7in /  1007.1hPa NNW 0.9mph /  1.4km/h 7mph /  11.3km/h 95% 0.08in /  2.0mm 0 W/m2
04:06 52 °F /  11.1 °C 50.5 °F /  10.3 °C 29.7in /  1007.1hPa West 0.9mph /  1.4km/h 2mph /  3.2km/h 95% 0.09in /  2.3mm 0 W/m2
04:11 52 °F /  11.1 °C 50.5 °F /  10.3 °C 29.7in /  1007.1hPa NW 2mph /  3.2km/h 3mph /  4.8km/h 95% 0.1in /  2.5mm 0 W/m2
04:16 52 °F /  11.1 °C 50.5 °F /  10.3 °C 29.7in /  1007.1hPa NNW 2mph /  3.2km/h 2mph /  3.2km/h 95% 0.1in /  2.5mm 0 W/m2
04:21 52 °F /  11.1 °C 50.5 °F /  10.3 °C 29.7in /  1007.1hPa NNW 0.9mph /  1.4km/h 4mph /  6.4km/h 95% 0.1in /  2.5mm 0 W/m2
04:26 52 °F /  11.1 °C 50.5 °F /  10.3 °C 29.7in /  1007.1hPa West 0.9mph /  1.4km/h 2mph /  3.2km/h 95% 0.1in /  2.5mm 0 W/m2
04:31 52 °F /  11.1 °C 50.5 °F /  10.3 °C 29.7in /  1007.1hPa North 0.9mph /  1.4km/h 2mph /  3.2km/h 95% 0.09in /  2.3mm 0 W/m2
04:36 52 °F /  11.1 °C 50.5 °F /  10.3 °C 29.7in /  1007.1hPa NW 0.9mph /  1.4km/h 2mph /  3.2km/h 95% 0.09in /  2.3mm 0 W/m2
04:41 52 °F /  11.1 °C 50.5 °F /  10.3 °C 29.8in /  1007.5hPa West 0.9mph /  1.4km/h 4mph /  6.4km/h 95% 0.09in /  2.3mm 0 W/m2
04:46 52 °F /  11.1 °C 50.5 °F /  10.3 °C 29.8in /  1007.5hPa Calm   2mph /  3.2km/h 95% 0.09in /  2.3mm 0 W/m2
04:51 52 °F /  11.1 °C 50.5 °F /  10.3 °C 29.8in /  1007.5hPa Calm   4mph /  6.4km/h 95% 0.09in /  2.3mm 0 W/m2
04:56 52 °F /  11.1 °C 50.5 °F /  10.3 °C 29.8in /  1007.5hPa Calm     95% 0.09in /  2.3mm 0 W/m2
05:01 52 °F /  11.1 °C 50.5 °F /  10.3 °C 29.8in /  1007.5hPa Calm   4mph /  6.4km/h 95% 0.08in /  2.0mm 0 W/m2
05:06 52 °F /  11.1 °C 50.5 °F /  10.3 °C 29.7in /  1007.1hPa ESE 0.9mph /  1.4km/h 2mph /  3.2km/h 95% 0.07in /  1.8mm 0 W/m2
05:12 51.8 °F /  11 °C 50.4 °F /  10.2 °C 29.8in /  1007.5hPa Calm     95% 0.06in /  1.5mm 0 W/m2
05:17 51.8 °F /  11 °C 50.4 °F /  10.2 °C 29.8in /  1007.5hPa ESE 2mph /  3.2km/h 2mph /  3.2km/h 95% 0.06in /  1.5mm 0 W/m2
05:22 51.8 °F /  11 °C 50.4 °F /  10.2 °C 29.8in /  1007.5hPa Calm     95% 0.05in /  1.3mm 0 W/m2
05:27 51.6 °F /  10.9 °C 50.2 °F /  10.1 °C 29.8in /  1007.5hPa Calm     95% 0.05in /  1.3mm 0 W/m2
05:32 51.6 °F /  10.9 °C 50.2 °F /  10.1 °C 29.8in /  1007.5hPa Calm   3mph /  4.8km/h 95% 0.04in /  1.0mm 0 W/m2
05:37 51.6 °F /  10.9 °C 50.2 °F /  10.1 °C 29.8in /  1007.8hPa Calm   1mph /  1.6km/h 95% 0.03in /  0.8mm 0 W/m2
05:42 51.6 °F /  10.9 °C 50.2 °F /  10.1 °C 29.8in /  1007.5hPa Calm   3mph /  4.8km/h 95% 0.03in /  0.8mm 0 W/m2
05:47 51.6 °F /  10.9 °C 50.2 °F /  10.1 °C 29.8in /  1007.5hPa Calm   1mph /  1.6km/h 95% 0.03in /  0.8mm 0 W/m2
05:52 51.6 °F /  10.9 °C 50.2 °F /  10.1 °C 29.8in /  1007.8hPa Calm   1mph /  1.6km/h 95% 0.03in /  0.8mm 0 W/m2
05:57 51.6 °F /  10.9 °C 50.5 °F /  10.3 °C 29.8in /  1007.8hPa East 2mph /  3.2km/h 2mph /  3.2km/h 96% 0.02in /  0.5mm 0 W/m2
06:02 51.6 °F /  10.9 °C 50.5 °F /  10.3 °C 29.8in /  1007.8hPa ENE 2mph /  3.2km/h 2mph /  3.2km/h 96% 0.03in /  0.8mm 0 W/m2
06:07 51.6 °F /  10.9 °C 50.5 °F /  10.3 °C 29.8in /  1007.8hPa East 2mph /  3.2km/h 4mph /  6.4km/h 96% 0.03in /  0.8mm 0 W/m2
06:12 51.6 °F /  10.9 °C 50.5 °F /  10.3 °C 29.8in /  1008.1hPa ESE 0.9mph /  1.4km/h 2mph /  3.2km/h 96% 0.03in /  0.8mm 0 W/m2
06:17 52 °F /  11.1 °C 50.9 °F /  10.5 °C 29.8in /  1008.1hPa Calm   4mph /  6.4km/h 96% 0.04in /  1.0mm 0 W/m2
06:22 52 °F /  11.1 °C 50.9 °F /  10.5 °C 29.8in /  1008.1hPa ESE 2mph /  3.2km/h 2mph /  3.2km/h 96% 0.04in /  1.0mm 0 W/m2
06:27 52.2 °F /  11.2 °C 51.1 °F /  10.6 °C 29.8in /  1008.1hPa Calm   6mph /  9.7km/h 96% 0.03in /  0.8mm 0 W/m2
06:32 52.3 °F /  11.3 °C 51.3 °F /  10.7 °C 29.8in /  1008.1hPa NNW 0.9mph /  1.4km/h 3mph /  4.8km/h 96% 0.03in /  0.8mm 0 W/m2
06:37 52.3 °F /  11.3 °C 51.3 °F /  10.7 °C 29.8in /  1008.1hPa Calm   3mph /  4.8km/h 96% 0.03in /  0.8mm 0 W/m2
06:42 52.5 °F /  11.4 °C 51.4 °F /  10.8 °C 29.8in /  1008.1hPa South 2mph /  3.2km/h 5mph /  8km/h 96% 0.03in /  0.8mm 0 W/m2
06:47 52.7 °F /  11.5 °C 51.6 °F /  10.9 °C 29.8in /  1008.1hPa Calm   4mph /  6.4km/h 96% 0.02in /  0.5mm 0 W/m2
06:52 52.9 °F /  11.6 °C 51.8 °F /  11 °C 29.8in /  1008.1hPa Calm   2mph /  3.2km/h 96% 0.02in /  0.5mm 0 W/m2
06:57 52.9 °F /  11.6 °C 51.4 °F /  10.8 °C 29.8in /  1008.1hPa WNW 0.9mph /  1.4km/h 3mph /  4.8km/h 95% 0.02in /  0.5mm 0 W/m2
07:02 52.9 °F /  11.6 °C 51.4 °F /  10.8 °C 29.8in /  1008.5hPa NW 0.9mph /  1.4km/h 6mph /  9.7km/h 95% 0.02in /  0.5mm 0 W/m2
07:07 52.9 °F /  11.6 °C 51.4 °F /  10.8 °C 29.8in /  1008.5hPa NW 0.9mph /  1.4km/h 3mph /  4.8km/h 95% 0.02in /  0.5mm 0 W/m2
07:12 52.9 °F /  11.6 °C 51.4 °F /  10.8 °C 29.8in /  1008.5hPa WSW 2mph /  3.2km/h 5mph /  8km/h 95% 0in /  0.0mm 0 W/m2
07:17 53.1 °F /  11.7 °C 51.6 °F /  10.9 °C 29.8in /  1008.5hPa West 2mph /  3.2km/h 11mph /  17.7km/h 95% 0in /  0.0mm 0 W/m2
07:22 53.1 °F /  11.7 °C 51.6 °F /  10.9 °C 29.8in /  1008.8hPa SE 2mph /  3.2km/h 5mph /  8km/h 95% 0in /  0.0mm 0 W/m2
07:27 53.1 °F /  11.7 °C 51.4 °F /  10.8 °C 29.8in /  1008.8hPa Calm   11mph /  17.7km/h 94% 0in /  0.0mm 5 W/m2
07:32 53.1 °F /  11.7 °C 51.4 °F /  10.8 °C 29.8in /  1009.1hPa NW 2mph /  3.2km/h 4mph /  6.4km/h 94% 0in /  0.0mm 7 W/m2
07:37 53.1 °F /  11.7 °C 51.4 °F /  10.8 °C 29.8in /  1008.8hPa NE 2.9mph /  4.7km/h 3mph /  4.8km/h 94% 0in /  0.0mm 9 W/m2
07:42 53.1 °F /  11.7 °C 51.4 °F /  10.8 °C 29.8in /  1009.1hPa Calm   1mph /  1.6km/h 94% 0in /  0.0mm 7 W/m2
07:47 52.9 °F /  11.6 °C 51.3 °F /  10.7 °C 29.8in /  1009.1hPa WNW 0.9mph /  1.4km/h 2mph /  3.2km/h 94% 0in /  0.0mm 11 W/m2
07:52 52.9 °F /  11.6 °C 51.3 °F /  10.7 °C 29.8in /  1009.1hPa NNW 0.9mph /  1.4km/h 4mph /  6.4km/h 94% 0.01in /  0.2mm 26 W/m2
07:57 52.9 °F /  11.6 °C 51.3 °F /  10.7 °C 29.8in /  1009.1hPa Calm   3mph /  4.8km/h 94% 0.01in /  0.2mm 42 W/m2
08:02 53.1 °F /  11.7 °C 51.4 °F /  10.8 °C 29.8in /  1009.1hPa WNW 0.9mph /  1.4km/h 3mph /  4.8km/h 94% 0.01in /  0.2mm 37 W/m2
08:07 53.1 °F /  11.7 °C 51.4 °F /  10.8 °C 29.8in /  1009.1hPa NW 2.9mph /  4.7km/h 4mph /  6.4km/h 94% 0.01in /  0.2mm 47 W/m2
08:12 53.1 °F /  11.7 °C 51.4 °F /  10.8 °C 29.8in /  1009.1hPa Calm   3mph /  4.8km/h 94% 0.01in /  0.2mm 69 W/m2
08:17 53.2 °F /  11.8 °C 51.6 °F /  10.9 °C 29.8in /  1009.5hPa Calm   3mph /  4.8km/h 94% 0.01in /  0.2mm 35 W/m2
08:22 53.2 °F /  11.8 °C 51.6 °F /  10.9 °C 29.8in /  1009.5hPa NNE 2mph /  3.2km/h 2mph /  3.2km/h 94% 0.01in /  0.2mm 26 W/m2
08:27 53.2 °F /  11.8 °C 51.6 °F /  10.9 °C 29.8in /  1009.8hPa Calm   3mph /  4.8km/h 94% 0.01in /  0.2mm 28 W/m2
08:32 53.2 °F /  11.8 °C 51.6 °F /  10.9 °C 29.8in /  1009.8hPa Calm   2mph /  3.2km/h 94% 0.01in /  0.2mm 35 W/m2
08:38 53.1 °F /  11.7 °C 51.4 °F /  10.8 °C 29.8in /  1009.8hPa North 6mph /  9.7km/h 6mph /  9.7km/h 94% 0.01in /  0.2mm 56 W/m2
08:43 53.1 °F /  11.7 °C 51.4 °F /  10.8 °C 29.8in /  1009.8hPa NNW 4mph /  6.4km/h 6mph /  9.7km/h 94% 0.01in /  0.2mm 39 W/m2
08:48 53.2 °F /  11.8 °C 51.3 °F /  10.7 °C 29.8in /  1009.8hPa SW 0.9mph /  1.4km/h 2mph /  3.2km/h 93% 0.01in /  0.2mm 40 W/m2
08:53 53.2 °F /  11.8 °C 51.3 °F /  10.7 °C 29.8in /  1010.2hPa NNW 2mph /  3.2km/h 6mph /  9.7km/h 93% 0.01in /  0.2mm 65 W/m2
08:58 53.2 °F /  11.8 °C 51.3 °F /  10.7 °C 29.8in /  1010.2hPa WNW 2mph /  3.2km/h 8mph /  12.9km/h 93% 0.01in /  0.2mm 47 W/m2
09:03 53.4 °F /  11.9 °C 51.4 °F /  10.8 °C 29.8in /  1010.2hPa West 0.9mph /  1.4km/h 4mph /  6.4km/h 93% 0.01in /  0.2mm 44 W/m2
09:08 53.4 °F /  11.9 °C 51.4 °F /  10.8 °C 29.8in /  1010.5hPa NW 0.9mph /  1.4km/h 3mph /  4.8km/h 93% 0.01in /  0.2mm 14 W/m2
09:13 53.2 °F /  11.8 °C 51.3 °F /  10.7 °C 29.8in /  1010.5hPa WNW 2.9mph /  4.7km/h 7mph /  11.3km/h 93% 0.01in /  0.2mm 23 W/m2
09:18 53.2 °F /  11.8 °C 51.3 °F /  10.7 °C 29.8in /  1010.5hPa WNW 0.9mph /  1.4km/h 4mph /  6.4km/h 93% 0.01in /  0.2mm 33 W/m2
09:23 53.1 °F /  11.7 °C 51.1 °F /  10.6 °C 29.9in /  1010.8hPa NW 4mph /  6.4km/h 7mph /  11.3km/h 93% 0.01in /  0.2mm 35 W/m2
09:28 53.1 °F /  11.7 °C 51.1 °F /  10.6 °C 29.9in /  1010.8hPa NW 2.9mph /  4.7km/h 7mph /  11.3km/h 93% 0.02in /  0.5mm 76 W/m2
09:33 53.1 °F /  11.7 °C 50.7 °F /  10.4 °C 29.9in /  1010.8hPa West 6.9mph /  11.1km/h 8mph /  12.9km/h 92% 0.02in /  0.5mm 77 W/m2
09:38 53.1 °F /  11.7 °C 50.7 °F /  10.4 °C 29.9in /  1010.8hPa WNW 2mph /  3.2km/h 8mph /  12.9km/h 92% 0.02in /  0.5mm 97 W/m2
09:43 53.2 °F /  11.8 °C 50.9 °F /  10.5 °C 29.9in /  1010.8hPa NW 2mph /  3.2km/h 4mph /  6.4km/h 92% 0.02in /  0.5mm 167 W/m2
09:48 53.4 °F /  11.9 °C 51.1 °F /  10.6 °C 29.9in /  1010.8hPa WSW 2.9mph /  4.7km/h 11mph /  17.7km/h 92% 0.02in /  0.5mm 120 W/m2
09:53 54 °F /  12.2 °C 51.6 °F /  10.9 °C 29.9in /  1010.8hPa North 4mph /  6.4km/h 4mph /  6.4km/h 92% 0.01in /  0.2mm 144 W/m2
09:58 54.1 °F /  12.3 °C 51.8 °F /  11 °C 29.9in /  1011.2hPa Calm   11mph /  17.7km/h 92% 0.01in /  0.2mm 160 W/m2
10:03 54.3 °F /  12.4 °C 51.8 °F /  11 °C 29.9in /  1011.2hPa WNW 6.9mph /  11.1km/h 14mph /  22.5km/h 91% 0.01in /  0.2mm 188 W/m2
10:08 54.3 °F /  12.4 °C 51.4 °F /  10.8 °C 29.9in /  1011.2hPa West 10.1mph /  16.3km/h 13mph /  20.9km/h 90% 0.01in /  0.2mm 113 W/m2
10:13 54.5 °F /  12.5 °C 51.3 °F /  10.7 °C 29.9in /  1011.2hPa SSW 4mph /  6.4km/h 14mph /  22.5km/h 89% 0.01in /  0.2mm 109 W/m2
10:18 54.5 °F /  12.5 °C 51.1 °F /  10.6 °C 29.9in /  1011.5hPa WNW 2.9mph /  4.7km/h 11mph /  17.7km/h 88% 0.01in /  0.2mm 137 W/m2
10:23 54.5 °F /  12.5 °C 50.4 °F /  10.2 °C 29.9in /  1011.5hPa WSW 2mph /  3.2km/h 7mph /  11.3km/h 86% 0.01in /  0.2mm 76 W/m2
10:28 54.3 °F /  12.4 °C 49.8 °F /  9.9 °C 29.9in /  1011.5hPa West 12.1mph /  19.5km/h 16mph /  25.7km/h 85% 0in /  0.0mm 46 W/m2
10:33 54.3 °F /  12.4 °C 49.6 °F /  9.8 °C 29.9in /  1011.5hPa NE 2mph /  3.2km/h 5mph /  8km/h 84% 0in /  0.0mm 40 W/m2
10:38 54.1 °F /  12.3 °C 49.5 °F /  9.7 °C 29.9in /  1011.5hPa NW 10.1mph /  16.3km/h 16mph /  25.7km/h 84% 0in /  0.0mm 42 W/m2
10:43 54.1 °F /  12.3 °C 49.5 °F /  9.7 °C 29.9in /  1011.9hPa WNW 11mph /  17.7km/h 11mph /  17.7km/h 84% 0in /  0.0mm 47 W/m2
10:48 54.1 °F /  12.3 °C 49.8 °F /  9.9 °C 29.9in /  1011.5hPa NW 2mph /  3.2km/h 10mph /  16.1km/h 85% 0in /  0.0mm 84 W/m2
10:53 54.3 °F /  12.4 °C 49.6 °F /  9.8 °C 29.9in /  1011.5hPa WSW 2.9mph /  4.7km/h 9mph /  14.5km/h 84% 0in /  0.0mm 127 W/m2
10:59 54.5 °F /  12.5 °C 49.1 °F /  9.5 °C 29.9in /  1011.9hPa WNW 4mph /  6.4km/h 13mph /  20.9km/h 82% 0in /  0.0mm 42 W/m2
11:04 54.7 °F /  12.6 °C 49.3 °F /  9.6 °C 29.9in /  1011.9hPa NW 11mph /  17.7km/h 13mph /  20.9km/h 82% 0in /  0.0mm 42 W/m2
11:09 54.3 °F /  12.4 °C 48.6 °F /  9.2 °C 29.9in /  1011.9hPa WNW 6mph /  9.7km/h 10mph /  16.1km/h 81% 0in /  0.0mm 72 W/m2
11:14 54.5 °F /  12.5 °C 48.7 °F /  9.3 °C 29.9in /  1011.9hPa NNW 2.9mph /  4.7km/h 8mph /  12.9km/h 81% 0in /  0.0mm 95 W/m2
11:19 54.7 °F /  12.6 °C 48.9 °F /  9.4 °C 29.9in /  1011.9hPa NW 0.9mph /  1.4km/h 12mph /  19.3km/h 81% 0in /  0.0mm 62 W/m2
11:24 54.7 °F /  12.6 °C 48.6 °F /  9.2 °C 29.9in /  1012.2hPa WNW 2.9mph /  4.7km/h 10mph /  16.1km/h 80% 0in /  0.0mm 77 W/m2
11:29 54.7 °F /  12.6 °C 48.4 °F /  9.1 °C 29.9in /  1011.9hPa NW 2.9mph /  4.7km/h 12mph /  19.3km/h 79% 0in /  0.0mm 88 W/m2
11:34 54.9 °F /  12.7 °C 48.6 °F /  9.2 °C 29.9in /  1012.2hPa WSW 2mph /  3.2km/h 13mph /  20.9km/h 79% 0in /  0.0mm 158 W/m2
11:39 54.9 °F /  12.7 °C 48.2 °F /  9 °C 29.9in /  1012.2hPa WSW 2.9mph /  4.7km/h 8mph /  12.9km/h 78% 0in /  0.0mm 76 W/m2
11:44 54.7 °F /  12.6 °C 48.4 °F /  9.1 °C 29.9in /  1012.2hPa WSW 2.9mph /  4.7km/h 13mph /  20.9km/h 79% 0in /  0.0mm 392 W/m2
11:49 54.9 °F /  12.7 °C 48.7 °F /  9.3 °C 29.9in /  1012.2hPa NNW 2mph /  3.2km/h 4mph /  6.4km/h 80% 0in /  0.0mm 408 W/m2
11:54 55 °F /  12.8 °C 48.6 °F /  9.2 °C 29.9in /  1012.2hPa NW 2mph /  3.2km/h 8mph /  12.9km/h 79% 0in /  0.0mm 132 W/m2
11:59 54.9 °F /  12.7 °C 47.8 °F /  8.8 °C 29.9in /  1012.2hPa West 6mph /  9.7km/h 13mph /  20.9km/h 77% 0in /  0.0mm 100 W/m2
12:04 54.7 °F /  12.6 °C 48 °F /  8.9 °C 29.9in /  1012.2hPa NW 4mph /  6.4km/h 6mph /  9.7km/h 78% 0in /  0.0mm 146 W/m2
12:09 54.7 °F /  12.6 °C 48 °F /  8.9 °C 29.9in /  1012.2hPa NW 2.9mph /  4.7km/h 7mph /  11.3km/h 78% 0in /  0.0mm 158 W/m2
12:14 54.7 °F /  12.6 °C 48 °F /  8.9 °C 29.9in /  1012.5hPa South 4.9mph /  7.9km/h 8mph /  12.9km/h 78% 0in /  0.0mm 246 W/m2
12:19 55 °F /  12.8 °C 48.4 °F /  9.1 °C 29.9in /  1012.2hPa NNW 2.9mph /  4.7km/h 8mph /  12.9km/h 78% 0in /  0.0mm 151 W/m2
12:24 55.2 °F /  12.9 °C 47.8 °F /  8.8 °C 29.9in /  1012.2hPa West 0.9mph /  1.4km/h 9mph /  14.5km/h 76% 0in /  0.0mm 172 W/m2
12:29 55.6 °F /  13.1 °C 48.6 °F /  9.2 °C 29.9in /  1012.2hPa WSW 2mph /  3.2km/h 3mph /  4.8km/h 77% 0in /  0.0mm 123 W/m2
12:34 55.4 °F /  13 °C 48 °F /  8.9 °C 29.9in /  1012.2hPa West 2.9mph /  4.7km/h 10mph /  16.1km/h 76% 0in /  0.0mm 128 W/m2
12:39 55.2 °F /  12.9 °C 47.8 °F /  8.8 °C 29.9in /  1012.2hPa West 0.9mph /  1.4km/h 8mph /  12.9km/h 76% 0in /  0.0mm 192 W/m2
12:44 55.2 °F /  12.9 °C 47.5 °F /  8.6 °C 29.9in /  1012.2hPa SW 2mph /  3.2km/h 4mph /  6.4km/h 75% 0in /  0.0mm 193 W/m2
12:49 55.4 °F /  13 °C 47.7 °F /  8.7 °C 29.9in /  1012.2hPa WSW 4mph /  6.4km/h 5mph /  8km/h 75% 0in /  0.0mm 125 W/m2
12:54 55.6 °F /  13.1 °C 47.8 °F /  8.8 °C 29.9in /  1012.2hPa NW 2.9mph /  4.7km/h 6mph /  9.7km/h 75% 0in /  0.0mm 246 W/m2
12:59 55.8 °F /  13.2 °C 48 °F /  8.9 °C 29.9in /  1012.2hPa North 2mph /  3.2km/h 5mph /  8km/h 75% 0in /  0.0mm 181 W/m2
13:04 55.9 °F /  13.3 °C 47.8 °F /  8.8 °C 29.9in /  1011.9hPa NW 8.1mph /  13km/h 9mph /  14.5km/h 74% 0in /  0.0mm 197 W/m2
13:09 55.8 °F /  13.2 °C 47.7 °F /  8.7 °C 29.9in /  1011.9hPa WNW 2mph /  3.2km/h 8mph /  12.9km/h 74% 0in /  0.0mm 174 W/m2
13:14 55.9 °F /  13.3 °C 47.8 °F /  8.8 °C 29.9in /  1011.9hPa North 2.9mph /  4.7km/h 4mph /  6.4km/h 74% 0in /  0.0mm 202 W/m2
13:19 56.1 °F /  13.4 °C 48 °F /  8.9 °C 29.9in /  1011.9hPa WNW 2.9mph /  4.7km/h 8mph /  12.9km/h 74% 0in /  0.0mm 188 W/m2
13:24 56.3 °F /  13.5 °C 48.2 °F /  9 °C 29.9in /  1011.9hPa WNW 2.9mph /  4.7km/h 5mph /  8km/h 74% 0in /  0.0mm 220 W/m2
13:29 56.7 °F /  13.7 °C 47.7 °F /  8.7 °C 29.9in /  1011.9hPa NW 4mph /  6.4km/h 16mph /  25.7km/h 72% 0in /  0.0mm 195 W/m2
13:34 56.7 °F /  13.7 °C 47.7 °F /  8.7 °C 29.9in /  1011.9hPa NE 2mph /  3.2km/h 6mph /  9.7km/h 72% 0in /  0.0mm 151 W/m2
13:39 56.8 °F /  13.8 °C 47.5 °F /  8.6 °C 29.9in /  1011.9hPa South 2mph /  3.2km/h 12mph /  19.3km/h 71% 0in /  0.0mm 193 W/m2
13:44 57 °F /  13.9 °C 47.3 °F /  8.5 °C 29.9in /  1011.9hPa WSW 2mph /  3.2km/h 5mph /  8km/h 70% 0in /  0.0mm 132 W/m2
13:49 57 °F /  13.9 °C 46.9 °F /  8.3 °C 29.9in /  1011.9hPa NW 4mph /  6.4km/h 6mph /  9.7km/h 69% 0in /  0.0mm 146 W/m2
13:54 57 °F /  13.9 °C 46.9 °F /  8.3 °C 29.9in /  1012.2hPa WNW 2mph /  3.2km/h 9mph /  14.5km/h 69% 0in /  0.0mm 232 W/m2
13:59 57.2 °F /  14 °C 47.1 °F /  8.4 °C 29.9in /  1012.2hPa West 0.9mph /  1.4km/h 7mph /  11.3km/h 69% 0in /  0.0mm 199 W/m2
14:04 57.2 °F /  14 °C 46.8 °F /  8.2 °C 29.9in /  1011.9hPa WSW 0.9mph /  1.4km/h 8mph /  12.9km/h 68% 0in /  0.0mm 149 W/m2
14:09 57 °F /  13.9 °C 46.9 °F /  8.3 °C 29.9in /  1012.2hPa WNW 2.9mph /  4.7km/h 4mph /  6.4km/h 69% 0in /  0.0mm 100 W/m2
14:14 57 °F /  13.9 °C 46.9 °F /  8.3 °C 29.9in /  1012.2hPa NNW 2mph /  3.2km/h 8mph /  12.9km/h 69% 0in /  0.0mm 93 W/m2
14:19 56.8 °F /  13.8 °C 47.1 °F /  8.4 °C 29.9in /  1012.2hPa ENE 0.9mph /  1.4km/h 6mph /  9.7km/h 70% 0in /  0.0mm 77 W/m2
14:24 56.8 °F /  13.8 °C 47.1 °F /  8.4 °C 29.9in /  1012.2hPa NNW 2mph /  3.2km/h 8mph /  12.9km/h 70% 0in /  0.0mm 111 W/m2
14:29 56.7 °F /  13.7 °C 46.9 °F /  8.3 °C 29.9in /  1012.2hPa South 0.9mph /  1.4km/h 8mph /  12.9km/h 70% 0in /  0.0mm 172 W/m2
14:34 56.7 °F /  13.7 °C 47.3 °F /  8.5 °C 29.9in /  1012.2hPa Calm   3mph /  4.8km/h 71% 0in /  0.0mm 121 W/m2
14:39 56.7 °F /  13.7 °C 46.9 °F /  8.3 °C 29.9in /  1011.9hPa SW 0.9mph /  1.4km/h 10mph /  16.1km/h 70% 0in /  0.0mm 86 W/m2
14:44 56.7 °F /  13.7 °C 47.3 °F /  8.5 °C 29.9in /  1011.9hPa WNW 2.9mph /  4.7km/h 5mph /  8km/h 71% 0in /  0.0mm 98 W/m2
14:49 56.7 °F /  13.7 °C 47.3 °F /  8.5 °C 29.9in /  1011.9hPa NW 4.9mph /  7.9km/h 14mph /  22.5km/h 71% 0in /  0.0mm 172 W/m2
14:54 56.7 °F /  13.7 °C 46.9 °F /  8.3 °C 29.9in /  1011.9hPa NNW 2.9mph /  4.7km/h 8mph /  12.9km/h 70% 0in /  0.0mm 171 W/m2
14:59 56.8 °F /  13.8 °C 47.1 °F /  8.4 °C 29.9in /  1011.9hPa NW 4.9mph /  7.9km/h 14mph /  22.5km/h 70% 0in /  0.0mm 153 W/m2
15:04 56.8 °F /  13.8 °C 47.1 °F /  8.4 °C 29.9in /  1011.9hPa West 0.9mph /  1.4km/h 3mph /  4.8km/h 70% 0in /  0.0mm 97 W/m2
15:09 56.7 °F /  13.7 °C 46.9 °F /  8.3 °C 29.9in /  1011.9hPa North 2mph /  3.2km/h 5mph /  8km/h 70% 0in /  0.0mm 102 W/m2
15:14 56.7 °F /  13.7 °C 46.9 °F /  8.3 °C 29.9in /  1011.9hPa WNW 2.9mph /  4.7km/h 9mph /  14.5km/h 70% 0in /  0.0mm 98 W/m2
15:19 56.7 °F /  13.7 °C 46.9 °F /  8.3 °C 29.9in /  1011.9hPa WNW 2.9mph /  4.7km/h 6mph /  9.7km/h 70% 0in /  0.0mm 77 W/m2
15:24 56.7 °F /  13.7 °C 47.3 °F /  8.5 °C 29.9in /  1012.2hPa WNW 4.9mph /  7.9km/h 5mph /  8km/h 71% 0in /  0.0mm 105 W/m2
15:29 56.5 °F /  13.6 °C 47.1 °F /  8.4 °C 29.9in /  1011.9hPa NW 6mph /  9.7km/h 8mph /  12.9km/h 71% 0in /  0.0mm 88 W/m2
15:34 56.5 °F /  13.6 °C 46.8 °F /  8.2 °C 29.9in /  1011.9hPa NNW 0.9mph /  1.4km/h 11mph /  17.7km/h 70% 0in /  0.0mm 69 W/m2
15:39 56.3 °F /  13.5 °C 46.9 °F /  8.3 °C 29.9in /  1011.9hPa ENE 2mph /  3.2km/h 3mph /  4.8km/h 71% 0in /  0.0mm 60 W/m2
15:44 56.1 °F /  13.4 °C 46.8 °F /  8.2 °C 29.9in /  1011.9hPa NNE 0.9mph /  1.4km/h 11mph /  17.7km/h 71% 0in /  0.0mm 58 W/m2
15:49 56.1 °F /  13.4 °C 46.8 °F /  8.2 °C 29.9in /  1011.9hPa WSW 2.9mph /  4.7km/h 10mph /  16.1km/h 71% 0in /  0.0mm 58 W/m2
15:54 55.9 °F /  13.3 °C 47.1 °F /  8.4 °C 29.9in /  1011.9hPa West 0.9mph /  1.4km/h 2mph /  3.2km/h 72% 0in /  0.0mm 47 W/m2
15:59 55.8 °F /  13.2 °C 46.9 °F /  8.3 °C 29.9in /  1011.9hPa Calm   6mph /  9.7km/h 72% 0in /  0.0mm 40 W/m2
16:04 55.6 °F /  13.1 °C 46.8 °F /  8.2 °C 29.9in /  1011.9hPa ESE 2.9mph /  4.7km/h 3mph /  4.8km/h 72% 0in /  0.0mm 40 W/m2
16:10 55.6 °F /  13.1 °C 47.1 °F /  8.4 °C 29.9in /  1012.2hPa NE 4mph /  6.4km/h 4mph /  6.4km/h 73% 0in /  0.0mm 44 W/m2
16:15 55.4 °F /  13 °C 46.9 °F /  8.3 °C 29.9in /  1012.2hPa ENE 0.9mph /  1.4km/h 2mph /  3.2km/h 73% 0in /  0.0mm 40 W/m2
16:20 55.2 °F /  12.9 °C 46.8 °F /  8.2 °C 29.9in /  1012.2hPa ENE 2.9mph /  4.7km/h 5mph /  8km/h 73% 0in /  0.0mm 37 W/m2
16:25 55.2 °F /  12.9 °C 47.1 °F /  8.4 °C 29.9in /  1011.9hPa NNW 2.9mph /  4.7km/h 4mph /  6.4km/h 74% 0in /  0.0mm 35 W/m2
16:30 55 °F /  12.8 °C 46.9 °F /  8.3 °C 29.9in /  1011.9hPa West 2.9mph /  4.7km/h 3mph /  4.8km/h 74% 0in /  0.0mm 25 W/m2
16:35 55 °F /  12.8 °C 46.9 °F /  8.3 °C 29.9in /  1011.9hPa Calm   6mph /  9.7km/h 74% 0in /  0.0mm 21 W/m2
16:40 55 °F /  12.8 °C 46.9 °F /  8.3 °C 29.9in /  1011.9hPa ENE 0.9mph /  1.4km/h 5mph /  8km/h 74% 0in /  0.0mm 32 W/m2
16:45 55 °F /  12.8 °C 46.9 °F /  8.3 °C 29.9in /  1011.9hPa NW 4mph /  6.4km/h 7mph /  11.3km/h 74% 0in /  0.0mm 30 W/m2
16:50 55 °F /  12.8 °C 46.9 °F /  8.3 °C 29.9in /  1011.9hPa Calm   2mph /  3.2km/h 74% 0in /  0.0mm 16 W/m2
16:55 55 °F /  12.8 °C 46.9 °F /  8.3 °C 29.9in /  1011.9hPa East 2mph /  3.2km/h 8mph /  12.9km/h 74% 0in /  0.0mm 9 W/m2
17:00 55 °F /  12.8 °C 47.3 °F /  8.5 °C 29.9in /  1011.9hPa ENE 0.9mph /  1.4km/h 1mph /  1.6km/h 75% 0in /  0.0mm 11 W/m2
17:05 55 °F /  12.8 °C 47.3 °F /  8.5 °C 29.9in /  1011.9hPa NW 0.9mph /  1.4km/h 8mph /  12.9km/h 75% 0in /  0.0mm 11 W/m2
17:10 54.9 °F /  12.7 °C 47.1 °F /  8.4 °C 29.9in /  1011.9hPa Calm   8mph /  12.9km/h 75% 0in /  0.0mm 0 W/m2
17:15 55 °F /  12.8 °C 46.9 °F /  8.3 °C 29.9in /  1011.9hPa NW 0.9mph /  1.4km/h 3mph /  4.8km/h 74% 0in /  0.0mm 0 W/m2
17:20 55 °F /  12.8 °C 47.3 °F /  8.5 °C 29.9in /  1011.9hPa Calm   8mph /  12.9km/h 75% 0in /  0.0mm 0 W/m2
17:25 55 °F /  12.8 °C 47.3 °F /  8.5 °C 29.9in /  1011.9hPa SSW 0.9mph /  1.4km/h 4mph /  6.4km/h 75% 0in /  0.0mm 0 W/m2
17:30 54.9 °F /  12.7 °C 47.1 °F /  8.4 °C 29.9in /  1011.5hPa SW 0.9mph /  1.4km/h 5mph /  8km/h 75% 0in /  0.0mm 0 W/m2
17:35 54.9 °F /  12.7 °C 47.1 °F /  8.4 °C 29.9in /  1011.5hPa NNE 2mph /  3.2km/h 4mph /  6.4km/h 75% 0in /  0.0mm 0 W/m2
17:40 54.9 °F /  12.7 °C 47.1 °F /  8.4 °C 29.9in /  1011.5hPa ENE 2mph /  3.2km/h 2mph /  3.2km/h 75% 0in /  0.0mm 0 W/m2
17:45 54.9 °F /  12.7 °C 47.1 °F /  8.4 °C 29.9in /  1011.5hPa NW 4.9mph /  7.9km/h 5mph /  8km/h 75% 0in /  0.0mm 0 W/m2
17:50 55 °F /  12.8 °C 47.3 °F /  8.5 °C 29.9in /  1011.5hPa NW 2.9mph /  4.7km/h 3mph /  4.8km/h 75% 0in /  0.0mm 0 W/m2
17:55 55 °F /  12.8 °C 47.3 °F /  8.5 °C 29.9in /  1011.5hPa ESE 2mph /  3.2km/h 2mph /  3.2km/h 75% 0in /  0.0mm 0 W/m2
18:00 54.9 °F /  12.7 °C 47.1 °F /  8.4 °C 29.9in /  1011.5hPa SE 2mph /  3.2km/h 5mph /  8km/h 75% 0in /  0.0mm 0 W/m2
18:05 54.9 °F /  12.7 °C 47.5 °F /  8.6 °C 29.9in /  1011.5hPa ENE 2mph /  3.2km/h 3mph /  4.8km/h 76% 0in /  0.0mm 0 W/m2
18:10 54.7 °F /  12.6 °C 47.7 °F /  8.7 °C 29.9in /  1011.5hPa NW 2mph /  3.2km/h 2mph /  3.2km/h 77% 0in /  0.0mm 0 W/m2
18:15 54.7 °F /  12.6 °C 47.7 °F /  8.7 °C 29.9in /  1011.5hPa SSW 0.9mph /  1.4km/h 6mph /  9.7km/h 77% 0in /  0.0mm 0 W/m2
18:20 54.7 °F /  12.6 °C 47.7 °F /  8.7 °C 29.9in /  1011.5hPa WNW 0.9mph /  1.4km/h 4mph /  6.4km/h 77% 0in /  0.0mm 0 W/m2
18:25 54.9 °F /  12.7 °C 47.8 °F /  8.8 °C 29.9in /  1011.5hPa WNW 4mph /  6.4km/h 6mph /  9.7km/h 77% 0in /  0.0mm 0 W/m2
18:30 54.9 °F /  12.7 °C 47.8 °F /  8.8 °C 29.9in /  1011.5hPa WSW 0.9mph /  1.4km/h 9mph /  14.5km/h 77% 0in /  0.0mm 0 W/m2
18:35 54.9 °F /  12.7 °C 47.8 °F /  8.8 °C 29.9in /  1011.5hPa NNW 2.9mph /  4.7km/h 5mph /  8km/h 77% 0in /  0.0mm 0 W/m2
18:40 54.9 °F /  12.7 °C 47.8 °F /  8.8 °C 29.9in /  1011.5hPa Calm   9mph /  14.5km/h 77% 0in /  0.0mm 0 W/m2
18:45 54.9 °F /  12.7 °C 47.8 °F /  8.8 °C 29.9in /  1011.5hPa SW 2.9mph /  4.7km/h 4mph /  6.4km/h 77% 0in /  0.0mm 0 W/m2
18:50 54.9 °F /  12.7 °C 47.8 °F /  8.8 °C 29.9in /  1011.5hPa SE 0.9mph /  1.4km/h 4mph /  6.4km/h 77% 0in /  0.0mm 0 W/m2
18:55 54.9 °F /  12.7 °C 47.8 °F /  8.8 °C 29.9in /  1011.5hPa NW 0.9mph /  1.4km/h 3mph /  4.8km/h 77% 0in /  0.0mm 0 W/m2
19:00 54.9 °F /  12.7 °C 47.8 °F /  8.8 °C 29.9in /  1011.5hPa West 0.9mph /  1.4km/h 3mph /  4.8km/h 77% 0in /  0.0mm 0 W/m2
19:05 54.9 °F /  12.7 °C 47.8 °F /  8.8 °C 29.9in /  1011.5hPa ESE 2.9mph /  4.7km/h 7mph /  11.3km/h 77% 0in /  0.0mm 0 W/m2
19:10 54.9 °F /  12.7 °C 48.2 °F /  9 °C 29.9in /  1011.5hPa Calm   4mph /  6.4km/h 78% 0in /  0.0mm 0 W/m2
19:15 54.7 °F /  12.6 °C 48 °F /  8.9 °C 29.9in /  1011.5hPa West 4mph /  6.4km/h 4mph /  6.4km/h 78% 0in /  0.0mm 0 W/m2
19:20 54.7 °F /  12.6 °C 48 °F /  8.9 °C 29.9in /  1011.5hPa NNE 0.9mph /  1.4km/h 4mph /  6.4km/h 78% 0in /  0.0mm 0 W/m2
19:25 54.7 °F /  12.6 °C 48 °F /  8.9 °C 29.9in /  1011.5hPa NW 2mph /  3.2km/h 4mph /  6.4km/h 78% 0in /  0.0mm 0 W/m2
19:30 54.7 °F /  12.6 °C 48 °F /  8.9 °C 29.9in /  1011.5hPa WNW 2mph /  3.2km/h 5mph /  8km/h 78% 0in /  0.0mm 0 W/m2
19:35 54.9 °F /  12.7 °C 48.2 °F /  9 °C 29.9in /  1011.5hPa NNW 4mph /  6.4km/h 4mph /  6.4km/h 78% 0in /  0.0mm 0 W/m2
19:40 54.9 °F /  12.7 °C 47.8 °F /  8.8 °C 29.9in /  1011.5hPa East 8.1mph /  13km/h 8mph /  12.9km/h 77% 0in /  0.0mm 0 W/m2
19:45 54.9 °F /  12.7 °C 48.2 °F /  9 °C 29.9in /  1011.5hPa North 0.9mph /  1.4km/h 7mph /  11.3km/h 78% 0in /  0.0mm 0 W/m2
19:50 54.9 °F /  12.7 °C 48.2 °F /  9 °C 29.9in /  1011.5hPa Calm   8mph /  12.9km/h 78% 0in /  0.0mm 0 W/m2
19:55 54.9 °F /  12.7 °C 48.2 °F /  9 °C 29.9in /  1011.5hPa WNW 4.9mph /  7.9km/h 6mph /  9.7km/h 78% 0in /  0.0mm 0 W/m2
20:00 54.9 °F /  12.7 °C 48.2 °F /  9 °C 29.9in /  1011.5hPa NW 2.9mph /  4.7km/h 5mph /  8km/h 78% 0in /  0.0mm 0 W/m2
20:05 54.7 °F /  12.6 °C 48 °F /  8.9 °C 29.9in /  1011.2hPa NW 2mph /  3.2km/h 5mph /  8km/h 78% 0in /  0.0mm 0 W/m2
20:10 54.7 °F /  12.6 °C 48.4 °F /  9.1 °C 29.9in /  1011.2hPa NE 2mph /  3.2km/h 6mph /  9.7km/h 79% 0in /  0.0mm 0 W/m2
20:15 54.7 °F /  12.6 °C 48.4 °F /  9.1 °C 29.9in /  1011.2hPa WNW 2.9mph /  4.7km/h 8mph /  12.9km/h 79% 0in /  0.0mm 0 W/m2
20:20 54.7 °F /  12.6 °C 48.4 °F /  9.1 °C 29.9in /  1011.2hPa NNW 0.9mph /  1.4km/h 2mph /  3.2km/h 79% 0in /  0.0mm 0 W/m2
20:25 54.7 °F /  12.6 °C 48.4 °F /  9.1 °C 29.9in /  1011.2hPa North 2mph /  3.2km/h 8mph /  12.9km/h 79% 0in /  0.0mm 0 W/m2
20:30 54.5 °F /  12.5 °C 48.2 °F /  9 °C 29.9in /  1011.2hPa North 0.9mph /  1.4km/h 5mph /  8km/h 79% 0in /  0.0mm 0 W/m2
20:35 54.5 °F /  12.5 °C 48.2 °F /  9 °C 29.9in /  1010.8hPa NNW 0.9mph /  1.4km/h 8mph /  12.9km/h 79% 0in /  0.0mm 0 W/m2
20:40 54.5 °F /  12.5 °C 48.2 °F /  9 °C 29.9in /  1010.8hPa ENE 4.9mph /  7.9km/h 7mph /  11.3km/h 79% 0in /  0.0mm 0 W/m2
20:45 54.5 °F /  12.5 °C 48.2 °F /  9 °C 29.9in /  1010.8hPa ENE 4mph /  6.4km/h 10mph /  16.1km/h 79% 0in /  0.0mm 0 W/m2
20:50 54.5 °F /  12.5 °C 48.2 °F /  9 °C 29.9in /  1010.8hPa NW 2.9mph /  4.7km/h 5mph /  8km/h 79% 0in /  0.0mm 0 W/m2
20:55 54.5 °F /  12.5 °C 48.2 °F /  9 °C 29.9in /  1011.2hPa North 2mph /  3.2km/h 10mph /  16.1km/h 79% 0in /  0.0mm 0 W/m2
21:00 54.7 °F /  12.6 °C 48.4 °F /  9.1 °C 29.9in /  1011.2hPa North 2mph /  3.2km/h 9mph /  14.5km/h 79% 0in /  0.0mm 0 W/m2
21:05 54.7 °F /  12.6 °C 48.4 °F /  9.1 °C 29.9in /  1011.2hPa NW 4.9mph /  7.9km/h 10mph /  16.1km/h 79% 0in /  0.0mm 0 W/m2
21:10 54.7 °F /  12.6 °C 48.4 °F /  9.1 °C 29.9in /  1011.2hPa WNW 4mph /  6.4km/h 8mph /  12.9km/h 79% 0in /  0.0mm 0 W/m2
21:15 54.7 °F /  12.6 °C 48.4 °F /  9.1 °C 29.9in /  1011.5hPa Calm   4mph /  6.4km/h 79% 0in /  0.0mm 0 W/m2
21:20 54.7 °F /  12.6 °C 48.6 °F /  9.2 °C 29.9in /  1011.5hPa WSW 8.1mph /  13km/h 10mph /  16.1km/h 80% 0in /  0.0mm 0 W/m2
21:25 54.7 °F /  12.6 °C 48.6 °F /  9.2 °C 29.9in /  1011.5hPa NW 0.9mph /  1.4km/h 10mph /  16.1km/h 80% 0in /  0.0mm 0 W/m2
21:30 54.7 °F /  12.6 °C 48.6 °F /  9.2 °C 29.9in /  1011.2hPa West 2mph /  3.2km/h 8mph /  12.9km/h 80% 0in /  0.0mm 0 W/m2
21:35 54.7 °F /  12.6 °C 48.6 °F /  9.2 °C 29.9in /  1011.2hPa SSW 0.9mph /  1.4km/h 8mph /  12.9km/h 80% 0in /  0.0mm 0 W/m2
21:40 54.7 °F /  12.6 °C 48.6 °F /  9.2 °C 29.9in /  1011.5hPa WSW 2mph /  3.2km/h 5mph /  8km/h 80% 0in /  0.0mm 0 W/m2
21:45 54.7 °F /  12.6 °C 48.6 °F /  9.2 °C 29.9in /  1011.2hPa NNW 4.9mph /  7.9km/h 8mph /  12.9km/h 80% 0in /  0.0mm 0 W/m2
21:50 54.9 °F /  12.7 °C 48.7 °F /  9.3 °C 29.9in /  1011.5hPa WNW 2mph /  3.2km/h 11mph /  17.7km/h 80% 0in /  0.0mm 0 W/m2
21:55 54.9 °F /  12.7 °C 48.7 °F /  9.3 °C 29.9in /  1011.5hPa West 6mph /  9.7km/h 11mph /  17.7km/h 80% 0in /  0.0mm 0 W/m2
22:00 54.9 °F /  12.7 °C 48.7 °F /  9.3 °C 29.9in /  1011.2hPa NW 2mph /  3.2km/h 7mph /  11.3km/h 80% 0in /  0.0mm 0 W/m2
22:05 54.9 °F /  12.7 °C 49.1 °F /  9.5 °C 29.9in /  1011.5hPa WSW 0.9mph /  1.4km/h 9mph /  14.5km/h 81% 0in /  0.0mm 0 W/m2
22:10 54.9 °F /  12.7 °C 49.1 °F /  9.5 °C 29.9in /  1011.2hPa SSE 2.9mph /  4.7km/h 9mph /  14.5km/h 81% 0in /  0.0mm 0 W/m2
22:15 54.9 °F /  12.7 °C 49.1 °F /  9.5 °C 29.9in /  1011.5hPa East 4.9mph /  7.9km/h 9mph /  14.5km/h 81% 0in /  0.0mm 0 W/m2
22:20 54.9 °F /  12.7 °C 49.1 °F /  9.5 °C 29.9in /  1011.5hPa NNW 4mph /  6.4km/h 6mph /  9.7km/h 81% 0in /  0.0mm 0 W/m2
22:25 54.9 °F /  12.7 °C 49.1 °F /  9.5 °C 29.9in /  1011.5hPa NE 2.9mph /  4.7km/h 8mph /  12.9km/h 81% 0in /  0.0mm 0 W/m2
22:30 54.9 °F /  12.7 °C 49.1 °F /  9.5 °C 29.9in /  1011.5hPa SE 2mph /  3.2km/h 8mph /  12.9km/h 81% 0in /  0.0mm 0 W/m2
22:35 54.9 °F /  12.7 °C 49.1 °F /  9.5 °C 29.9in /  1011.5hPa WNW 2mph /  3.2km/h 9mph /  14.5km/h 81% 0in /  0.0mm 0 W/m2
22:40 54.9 °F /  12.7 °C 49.1 °F /  9.5 °C 29.9in /  1011.5hPa NNW 4mph /  6.4km/h 7mph /  11.3km/h 81% 0in /  0.0mm 0 W/m2
22:45 54.7 °F /  12.6 °C 48.9 °F /  9.4 °C 29.9in /  1011.5hPa NNE 2.9mph /  4.7km/h 9mph /  14.5km/h 81% 0in /  0.0mm 0 W/m2
22:50 54.7 °F /  12.6 °C 49.3 °F /  9.6 °C 29.9in /  1011.2hPa NW 2.9mph /  4.7km/h 11mph /  17.7km/h 82% 0in /  0.0mm 0 W/m2
22:55 54.7 °F /  12.6 °C 49.3 °F /  9.6 °C 29.9in /  1011.2hPa WNW 4mph /  6.4km/h 10mph /  16.1km/h 82% 0in /  0.0mm 0 W/m2
23:01 54.5 °F /  12.5 °C 49.1 °F /  9.5 °C 29.9in /  1011.2hPa WNW 2mph /  3.2km/h 8mph /  12.9km/h 82% 0in /  0.0mm 0 W/m2
23:06 54.5 °F /  12.5 °C 49.1 °F /  9.5 °C 29.9in /  1011.5hPa NNW 0.9mph /  1.4km/h 8mph /  12.9km/h 82% 0in /  0.0mm 0 W/m2
23:11 54.5 °F /  12.5 °C 49.1 °F /  9.5 °C 29.9in /  1011.5hPa WNW 4mph /  6.4km/h 5mph /  8km/h 82% 0in /  0.0mm 0 W/m2
23:16 54.5 °F /  12.5 °C 49.1 °F /  9.5 °C 29.9in /  1011.5hPa WSW 6mph /  9.7km/h 7mph /  11.3km/h 82% 0in /  0.0mm 0 W/m2
23:21 54.7 °F /  12.6 °C 49.3 °F /  9.6 °C 29.9in /  1011.9hPa NW 8.9mph /  14.3km/h 9mph /  14.5km/h 82% 0in /  0.0mm 0 W/m2
23:26 54.7 °F /  12.6 °C 49.3 °F /  9.6 °C 29.9in /  1011.5hPa WNW 4mph /  6.4km/h 6mph /  9.7km/h 82% 0in /  0.0mm 0 W/m2
23:31 54.5 °F /  12.5 °C 49.1 °F /  9.5 °C 29.9in /  1011.5hPa WSW 0.9mph /  1.4km/h 8mph /  12.9km/h 82% 0in /  0.0mm 0 W/m2
23:36 54.3 °F /  12.4 °C 49.6 °F /  9.8 °C 29.9in /  1011.9hPa South 2mph /  3.2km/h 9mph /  14.5km/h 84% 0in /  0.0mm 0 W/m2
23:41 54.1 °F /  12.3 °C 49.8 °F /  9.9 °C 29.9in /  1011.9hPa SSE 0.9mph /  1.4km/h 4mph /  6.4km/h 85% 0in /  0.0mm 0 W/m2
23:46 53.8 °F /  12.1 °C 49.6 °F /  9.8 °C 29.9in /  1011.9hPa NW 6mph /  9.7km/h 9mph /  14.5km/h 86% 0in /  0.0mm 0 W/m2
23:51 53.6 °F /  12 °C 49.5 °F /  9.7 °C 29.9in /  1011.9hPa WNW 2mph /  3.2km/h 7mph /  11.3km/h 86% 0in /  0.0mm 0 W/m2
23:56 53.4 °F /  11.9 °C 49.6 °F /  9.8 °C 29.9in /  1011.9hPa NW 6mph /  9.7km/h 9mph /  14.5km/h 87% 0in /  0.0mm 0 W/m2
Juneau County Weather
Compliments of Weather Underground - 2 mb